sensor_id;sensor_type;location;lat;lon;timestamp;pressure;altitude;pressure_sealevel;temperature;humidity
43683;BME280;29285;52.128;21.060;2022-09-09T00:02:23;100122.40;;;15.26;44.12
43683;BME280;29285;52.128;21.060;2022-09-09T00:07:43;100128.92;;;15.03;44.60
43683;BME280;29285;52.128;21.060;2022-09-09T00:12:59;100125.15;;;14.87;45.15
43683;BME280;29285;52.128;21.060;2022-09-09T00:23:55;100113.40;;;14.61;46.18
43683;BME280;29285;52.128;21.060;2022-09-09T00:34:21;100112.60;;;14.47;47.27
43683;BME280;29285;52.128;21.060;2022-09-09T00:39:40;100110.95;;;14.45;47.77
43683;BME280;29285;52.128;21.060;2022-09-09T00:50:02;100109.16;;;14.45;48.73
43683;BME280;29285;52.128;21.060;2022-09-09T01:00:42;100121.73;;;14.35;49.52
43683;BME280;29285;52.128;21.060;2022-09-09T01:06:11;100113.89;;;14.35;49.95
43683;BME280;29285;52.128;21.060;2022-09-09T01:11:25;100122.75;;;14.31;50.34
43683;BME280;29285;52.128;21.060;2022-09-09T01:16:29;100117.61;;;14.28;50.74
43683;BME280;29285;52.128;21.060;2022-09-09T01:21:37;100118.22;;;14.23;51.06
43683;BME280;29285;52.128;21.060;2022-09-09T01:26:42;100110.59;;;14.16;51.39
43683;BME280;29285;52.128;21.060;2022-09-09T01:32:00;100094.80;;;14.20;51.78
43683;BME280;29285;52.128;21.060;2022-09-09T01:37:07;100097.81;;;14.21;52.16
43683;BME280;29285;52.128;21.060;2022-09-09T01:42:13;100095.98;;;14.23;52.49
43683;BME280;29285;52.128;21.060;2022-09-09T01:47:15;100093.14;;;14.17;52.78
43683;BME280;29285;52.128;21.060;2022-09-09T01:52:18;100093.36;;;14.23;53.11
43683;BME280;29285;52.128;21.060;2022-09-09T01:57:38;100107.76;;;14.23;53.45
43683;BME280;29285;52.128;21.060;2022-09-09T02:03:04;100100.92;;;14.19;53.68
43683;BME280;29285;52.128;21.060;2022-09-09T02:08:09;100100.70;;;14.13;53.96
43683;BME280;29285;52.128;21.060;2022-09-09T02:13:32;100097.61;;;14.13;54.27
43683;BME280;29285;52.128;21.060;2022-09-09T02:19:10;100099.69;;;14.17;54.61
43683;BME280;29285;52.128;21.060;2022-09-09T02:24:17;100097.16;;;14.14;54.86
43683;BME280;29285;52.128;21.060;2022-09-09T02:29:30;100102.30;;;14.17;55.18
43683;BME280;29285;52.128;21.060;2022-09-09T02:34:36;100099.83;;;14.12;55.36
43683;BME280;29285;52.128;21.060;2022-09-09T02:39:40;100091.63;;;14.10;55.61
43683;BME280;29285;52.128;21.060;2022-09-09T02:44:43;100101.87;;;14.04;55.82
43683;BME280;29285;52.128;21.060;2022-09-09T02:55:24;100098.42;;;14.15;56.42
43683;BME280;29285;52.128;21.060;2022-09-09T03:00:39;100103.70;;;14.14;56.65
43683;BME280;29285;52.128;21.060;2022-09-09T03:05:40;100098.65;;;14.09;56.84
43683;BME280;29285;52.128;21.060;2022-09-09T03:10:42;100109.60;;;14.07;57.04
43683;BME280;29285;52.128;21.060;2022-09-09T03:15:43;100099.53;;;14.08;57.25
43683;BME280;29285;52.128;21.060;2022-09-09T03:20:46;100099.66;;;14.05;57.45
43683;BME280;29285;52.128;21.060;2022-09-09T03:25:52;100088.72;;;14.06;57.70
43683;BME280;29285;52.128;21.060;2022-09-09T03:31:03;100090.50;;;14.05;57.91
43683;BME280;29285;52.128;21.060;2022-09-09T03:36:06;100085.95;;;14.10;58.17
43683;BME280;29285;52.128;21.060;2022-09-09T03:41:09;100080.20;;;14.12;58.41
43683;BME280;29285;52.128;21.060;2022-09-09T03:46:10;100081.91;;;14.13;58.59
43683;BME280;29285;52.128;21.060;2022-09-09T03:51:12;100085.05;;;14.11;58.79
43683;BME280;29285;52.128;21.060;2022-09-09T03:56:14;100094.25;;;14.10;58.92
43683;BME280;29285;52.128;21.060;2022-09-09T04:01:15;100087.87;;;14.05;59.10
43683;BME280;29285;52.128;21.060;2022-09-09T04:06:18;100091.80;;;14.05;59.30
43683;BME280;29285;52.128;21.060;2022-09-09T04:11:21;100087.53;;;14.02;59.48
43683;BME280;29285;52.128;21.060;2022-09-09T04:16:22;100090.50;;;14.05;59.65
43683;BME280;29285;52.128;21.060;2022-09-09T04:21:23;100095.55;;;14.10;59.91
43683;BME280;29285;52.128;21.060;2022-09-09T04:26:25;100094.50;;;14.15;60.11
43683;BME280;29285;52.128;21.060;2022-09-09T04:31:26;100092.84;;;14.13;60.23
43683;BME280;29285;52.128;21.060;2022-09-09T04:36:27;100085.44;;;14.12;60.35
43683;BME280;29285;52.128;21.060;2022-09-09T04:41:28;100087.22;;;14.12;60.51
43683;BME280;29285;52.128;21.060;2022-09-09T04:46:30;100089.76;;;14.13;60.73
43683;BME280;29285;52.128;21.060;2022-09-09T04:51:31;100102.09;;;14.10;60.86
43683;BME280;29285;52.128;21.060;2022-09-09T04:56:33;100098.87;;;14.15;61.04
43683;BME280;29285;52.128;21.060;2022-09-09T05:01:34;100101.53;;;14.13;61.19
43683;BME280;29285;52.128;21.060;2022-09-09T05:06:35;100099.95;;;14.09;61.34
43683;BME280;29285;52.128;21.060;2022-09-09T05:11:37;100105.67;;;14.07;61.46
43683;BME280;29285;52.128;21.060;2022-09-09T05:16:38;100111.30;;;14.08;61.59
43683;BME280;29285;52.128;21.060;2022-09-09T05:21:40;100113.09;;;14.08;61.76
43683;BME280;29285;52.128;21.060;2022-09-09T05:26:42;100115.75;;;14.06;61.93
43683;BME280;29285;52.128;21.060;2022-09-09T05:31:45;100119.63;;;14.08;62.10
43683;BME280;29285;52.128;21.060;2022-09-09T05:36:47;100123.90;;;14.10;62.30
43683;BME280;29285;52.128;21.060;2022-09-09T05:41:49;100112.00;;;14.13;62.49
43683;BME280;29285;52.128;21.060;2022-09-09T05:46:51;100110.98;;;14.18;62.66
43683;BME280;29285;52.128;21.060;2022-09-09T05:51:53;100114.25;;;14.24;62.84
43683;BME280;29285;52.128;21.060;2022-09-09T05:56:54;100116.35;;;14.26;62.99
43683;BME280;29285;52.128;21.060;2022-09-09T06:01:55;100117.61;;;14.28;63.11
43683;BME280;29285;52.128;21.060;2022-09-09T06:06:57;100127.47;;;14.33;63.28
43683;BME280;29285;52.128;21.060;2022-09-09T06:11:58;100137.39;;;14.37;63.42
43683;BME280;29285;52.128;21.060;2022-09-09T06:16:59;100132.03;;;14.40;63.55
43683;BME280;29285;52.128;21.060;2022-09-09T06:22:00;100146.43;;;14.40;63.66
43683;BME280;29285;52.128;21.060;2022-09-09T06:27:01;100137.94;;;14.33;63.30
43683;BME280;29285;52.128;21.060;2022-09-09T06:32:03;100144.48;;;14.33;63.82
43683;BME280;29285;52.128;21.060;2022-09-09T06:37:05;100147.22;;;14.30;63.91
43683;BME280;29285;52.128;21.060;2022-09-09T06:42:07;100148.53;;;14.30;64.02
43683;BME280;29285;52.128;21.060;2022-09-09T06:47:10;100150.92;;;14.36;64.24
43683;BME280;29285;52.128;21.060;2022-09-09T06:52:12;100149.92;;;14.40;64.37
43683;BME280;29285;52.128;21.060;2022-09-09T06:57:14;100155.37;;;14.34;64.48
43683;BME280;29285;52.128;21.060;2022-09-09T07:02:15;100156.46;;;14.40;64.62
43683;BME280;29285;52.128;21.060;2022-09-09T07:07:16;100156.14;;;14.50;64.79
43683;BME280;29285;52.128;21.060;2022-09-09T07:12:18;100157.50;;;14.48;64.93
43683;BME280;29285;52.128;21.060;2022-09-09T07:17:19;100163.17;;;14.48;64.99
43683;BME280;29285;52.128;21.060;2022-09-09T07:22:21;100167.30;;;14.55;65.14
43683;BME280;29285;52.128;21.060;2022-09-09T07:27:22;100172.46;;;14.56;65.29
43683;BME280;29285;52.128;21.060;2022-09-09T07:32:24;100175.50;;;14.58;65.39
43683;BME280;29285;52.128;21.060;2022-09-09T07:37:26;100183.41;;;14.56;65.45
43683;BME280;29285;52.128;21.060;2022-09-09T07:42:27;100175.03;;;14.58;65.58
43683;BME280;29285;52.128;21.060;2022-09-09T07:47:29;100185.02;;;14.60;65.72
43683;BME280;29285;52.128;21.060;2022-09-09T07:52:30;100193.05;;;14.67;65.89
43683;BME280;29285;52.128;21.060;2022-09-09T07:57:32;100190.72;;;14.72;66.02
43683;BME280;29285;52.128;21.060;2022-09-09T08:02:33;100202.11;;;14.71;66.13
43683;BME280;29285;52.128;21.060;2022-09-09T08:07:34;100209.28;;;14.65;66.15
43683;BME280;29285;52.128;21.060;2022-09-09T08:12:36;100215.83;;;14.65;66.25
43683;BME280;29285;52.128;21.060;2022-09-09T08:17:37;100214.91;;;14.66;66.36
43683;BME280;29285;52.128;21.060;2022-09-09T08:22:39;100219.92;;;14.73;66.53
43683;BME280;29285;52.128;21.060;2022-09-09T08:27:40;100223.22;;;14.79;66.70
43683;BME280;29285;52.128;21.060;2022-09-09T08:32:41;100219.11;;;14.84;66.87
43683;BME280;29285;52.128;21.060;2022-09-09T08:37:43;100220.77;;;14.87;66.97
43683;BME280;29285;52.128;21.060;2022-09-09T08:42:48;100227.31;;;14.87;67.00
43683;BME280;29285;52.128;21.060;2022-09-09T08:47:54;100228.09;;;14.90;67.11
43683;BME280;29285;52.128;21.060;2022-09-09T08:53:01;100228.34;;;14.94;67.16
43683;BME280;29285;52.128;21.060;2022-09-09T08:58:19;100229.33;;;15.04;67.31
43683;BME280;29285;52.128;21.060;2022-09-09T09:14:35;100233.27;;;15.16;67.60
43683;BME280;29285;52.128;21.060;2022-09-09T09:19:38;100244.34;;;15.24;67.71
43683;BME280;29285;52.128;21.060;2022-09-09T09:30:19;100250.76;;;15.27;67.85
43683;BME280;29285;52.128;21.060;2022-09-09T09:35:22;100254.14;;;15.31;67.92
43683;BME280;29285;52.128;21.060;2022-09-09T09:40:24;100261.88;;;15.34;67.99
43683;BME280;29285;52.128;21.060;2022-09-09T09:45:34;100261.72;;;15.39;68.08
43683;BME280;29285;52.128;21.060;2022-09-09T09:50:56;100262.69;;;15.36;68.13
43683;BME280;29285;52.128;21.060;2022-09-09T09:56:14;100251.44;;;15.32;68.12
43683;BME280;29285;52.128;21.060;2022-09-09T10:01:22;100256.82;;;15.41;68.23
43683;BME280;29285;52.128;21.060;2022-09-09T10:06:38;100259.20;;;15.47;68.42
43683;BME280;29285;52.128;21.060;2022-09-09T10:12:01;100257.42;;;15.48;68.46
43683;BME280;29285;52.128;21.060;2022-09-09T10:17:11;100263.97;;;15.48;68.46
43683;BME280;29285;52.128;21.060;2022-09-09T10:22:32;100277.08;;;15.48;68.51
43683;BME280;29285;52.128;21.060;2022-09-09T10:49:17;100320.92;;;15.44;68.87
43683;BME280;29285;52.128;21.060;2022-09-09T10:59:49;100322.92;;;15.49;69.08
43683;BME280;29285;52.128;21.060;2022-09-09T11:04:58;100329.77;;;15.54;69.22
43683;BME280;29285;52.128;21.060;2022-09-09T11:10:44;100324.08;;;15.54;69.29
43683;BME280;29285;52.128;21.060;2022-09-09T11:15:58;100333.36;;;15.51;69.34
43683;BME280;29285;52.128;21.060;2022-09-09T11:21:02;100334.97;;;15.55;69.38
43683;BME280;29285;52.128;21.060;2022-09-09T11:26:06;100331.08;;;15.54;69.42
43683;BME280;29285;52.128;21.060;2022-09-09T11:41:48;100346.92;;;15.62;69.71
43683;BME280;29285;52.128;21.060;2022-09-09T11:46:50;100344.64;;;15.65;69.74
43683;BME280;29285;52.128;21.060;2022-09-09T11:51:53;100342.31;;;15.69;69.86
43683;BME280;29285;52.128;21.060;2022-09-09T11:56:55;100347.06;;;15.71;69.93
43683;BME280;29285;52.128;21.060;2022-09-09T12:07:25;100337.93;;;15.82;70.13
43683;BME280;29285;52.128;21.060;2022-09-09T12:12:38;100340.55;;;15.82;70.15
43683;BME280;29285;52.128;21.060;2022-09-09T12:17:48;100344.83;;;15.84;70.24
43683;BME280;29285;52.128;21.060;2022-09-09T12:23:19;100353.05;;;15.87;70.31
43683;BME280;29285;52.128;21.060;2022-09-09T12:28:58;100352.13;;;15.88;70.38
43683;BME280;29285;52.128;21.060;2022-09-09T12:34:17;100359.13;;;15.87;70.43
43683;BME280;29285;52.128;21.060;2022-09-09T12:39:40;100354.84;;;15.85;70.46
43683;BME280;29285;52.128;21.060;2022-09-09T12:45:02;100347.84;;;15.85;70.50
43683;BME280;29285;52.128;21.060;2022-09-09T12:50:16;100338.08;;;15.89;70.60
43683;BME280;29285;52.128;21.060;2022-09-09T12:55:23;100333.62;;;15.91;70.67
43683;BME280;29285;52.128;21.060;2022-09-09T13:00:55;100338.52;;;15.88;70.69
43683;BME280;29285;52.128;21.060;2022-09-09T13:05:59;100339.34;;;15.91;70.72
43683;BME280;29285;52.128;21.060;2022-09-09T13:11:15;100349.31;;;15.93;70.85
43683;BME280;29285;52.128;21.060;2022-09-09T13:16:31;100341.70;;;15.98;70.97
43683;BME280;29285;52.128;21.060;2022-09-09T13:21:38;100343.67;;;15.92;70.98
43683;BME280;29285;52.128;21.060;2022-09-09T13:26:40;100342.94;;;15.88;70.98
43683;BME280;29285;52.128;21.060;2022-09-09T13:31:41;100330.80;;;15.85;71.00
43683;BME280;29285;52.128;21.060;2022-09-09T13:36:46;100329.09;;;15.84;71.11
43683;BME280;29285;52.128;21.060;2022-09-09T13:41:48;100323.02;;;15.82;71.14
43683;BME280;29285;52.128;21.060;2022-09-09T13:52:20;100331.23;;;15.73;71.22
43683;BME280;29285;52.128;21.060;2022-09-09T13:57:24;100344.20;;;15.66;71.28
43683;BME280;29285;52.128;21.060;2022-09-09T14:02:26;100343.56;;;15.59;71.32
43683;BME280;29285;52.128;21.060;2022-09-09T14:07:27;100336.33;;;15.54;71.38
43683;BME280;29285;52.128;21.060;2022-09-09T14:12:30;100345.84;;;15.56;71.49
43683;BME280;29285;52.128;21.060;2022-09-09T14:17:31;100336.62;;;15.58;71.66
43683;BME280;29285;52.128;21.060;2022-09-09T14:22:34;100347.89;;;15.60;71.73
43683;BME280;29285;52.128;21.060;2022-09-09T14:27:36;100343.08;;;15.61;71.81
43683;BME280;29285;52.128;21.060;2022-09-09T14:32:37;100350.52;;;15.60;71.84
43683;BME280;29285;52.128;21.060;2022-09-09T14:37:38;100361.30;;;15.64;71.93
43683;BME280;29285;52.128;21.060;2022-09-09T14:42:40;100360.80;;;15.66;72.00
43683;BME280;29285;52.128;21.060;2022-09-09T14:47:41;100355.48;;;15.68;72.00
43683;BME280;29285;52.128;21.060;2022-09-09T14:52:42;100359.13;;;15.75;72.10
43683;BME280;29285;52.128;21.060;2022-09-09T14:57:44;100355.37;;;15.83;72.17
43683;BME280;29285;52.128;21.060;2022-09-09T15:02:46;100351.25;;;15.87;72.20
43683;BME280;29285;52.128;21.060;2022-09-09T15:07:47;100358.55;;;15.91;72.24
43683;BME280;29285;52.128;21.060;2022-09-09T15:12:50;100348.47;;;15.92;72.28
43683;BME280;29285;52.128;21.060;2022-09-09T15:17:51;100347.16;;;15.92;72.28
43683;BME280;29285;52.128;21.060;2022-09-09T15:22:52;100346.50;;;15.99;72.38
43683;BME280;29285;52.128;21.060;2022-09-09T15:27:54;100350.98;;;15.95;72.36
43683;BME280;29285;52.128;21.060;2022-09-09T15:32:56;100351.86;;;15.96;72.34
43683;BME280;29285;52.128;21.060;2022-09-09T15:38:01;100354.04;;;15.96;72.34
43683;BME280;29285;52.128;21.060;2022-09-09T15:43:05;100360.07;;;15.98;72.42
43683;BME280;29285;52.128;21.060;2022-09-09T15:48:07;100357.00;;;15.99;72.41
43683;BME280;29285;52.128;21.060;2022-09-09T15:53:08;100353.27;;;16.05;72.50
43683;BME280;29285;52.128;21.060;2022-09-09T15:58:09;100351.45;;;16.07;72.56
43683;BME280;29285;52.128;21.060;2022-09-09T16:03:12;100356.81;;;16.04;72.52
43683;BME280;29285;52.128;21.060;2022-09-09T16:08:13;100352.34;;;16.06;72.54
43683;BME280;29285;52.128;21.060;2022-09-09T16:13:14;100356.28;;;16.06;72.59
43683;BME280;29285;52.128;21.060;2022-09-09T16:18:15;100350.06;;;16.08;72.63
43683;BME280;29285;52.128;21.060;2022-09-09T16:23:19;100346.06;;;16.10;72.67
43683;BME280;29285;52.128;21.060;2022-09-09T16:28:20;100348.94;;;16.04;72.64
43683;BME280;29285;52.128;21.060;2022-09-09T16:33:21;100351.67;;;16.00;72.59
43683;BME280;29285;52.128;21.060;2022-09-09T16:38:23;100354.83;;;15.98;72.62
43683;BME280;29285;52.128;21.060;2022-09-09T16:43:25;100350.55;;;15.96;72.62
43683;BME280;29285;52.128;21.060;2022-09-09T16:48:30;100342.06;;;15.87;72.60
43683;BME280;29285;52.128;21.060;2022-09-09T16:53:35;100341.34;;;15.84;72.58
43683;BME280;29285;52.128;21.060;2022-09-09T16:58:37;100346.25;;;15.81;72.65
43683;BME280;29285;52.128;21.060;2022-09-09T17:03:38;100361.12;;;15.81;72.68
43683;BME280;29285;52.128;21.060;2022-09-09T17:08:40;100364.66;;;15.80;72.75
43683;BME280;29285;52.128;21.060;2022-09-09T17:13:43;100363.35;;;15.80;72.82
43683;BME280;29285;52.128;21.060;2022-09-09T17:18:46;100369.56;;;15.77;72.82
43683;BME280;29285;52.128;21.060;2022-09-09T17:23:47;100368.83;;;15.73;72.83
43683;BME280;29285;52.128;21.060;2022-09-09T17:28:48;100377.23;;;15.71;72.83
43683;BME280;29285;52.128;21.060;2022-09-09T17:33:50;100375.38;;;15.61;72.82
43683;BME280;29285;52.128;21.060;2022-09-09T17:38:54;100376.98;;;15.54;72.75
43683;BME280;29285;52.128;21.060;2022-09-09T17:43:57;100381.88;;;15.51;72.82
43683;BME280;29285;52.128;21.060;2022-09-09T17:49:02;100387.74;;;15.46;72.84
43683;BME280;29285;52.128;21.060;2022-09-09T17:54:07;100398.28;;;15.44;72.92
43683;BME280;29285;52.128;21.060;2022-09-09T17:59:11;100395.36;;;15.40;72.96
43683;BME280;29285;52.128;21.060;2022-09-09T18:04:15;100396.45;;;15.34;72.98
43683;BME280;29285;52.128;21.060;2022-09-09T18:09:20;100400.48;;;15.31;73.02
43683;BME280;29285;52.128;21.060;2022-09-09T18:14:30;100408.56;;;15.25;73.03
43683;BME280;29285;52.128;21.060;2022-09-09T18:19:30;100408.52;;;15.27;73.11
43683;BME280;29285;52.128;21.060;2022-09-09T18:24:33;100413.90;;;15.22;73.15
43683;BME280;29285;52.128;21.060;2022-09-09T18:29:36;100422.59;;;15.24;73.22
43683;BME280;29285;52.128;21.060;2022-09-09T18:34:37;100429.48;;;15.27;73.33
43683;BME280;29285;52.128;21.060;2022-09-09T18:39:38;100426.52;;;15.24;73.42
43683;BME280;29285;52.128;21.060;2022-09-09T18:44:40;100423.59;;;15.20;73.39
43683;BME280;29285;52.128;21.060;2022-09-09T18:49:42;100428.88;;;15.18;73.43
43683;BME280;29285;52.128;21.060;2022-09-09T18:54:45;100422.80;;;15.18;73.47
43683;BME280;29285;52.128;21.060;2022-09-09T18:59:48;100420.72;;;15.14;73.51
43683;BME280;29285;52.128;21.060;2022-09-09T19:04:51;100420.36;;;15.12;73.49
43683;BME280;29285;52.128;21.060;2022-09-09T19:09:52;100417.74;;;15.12;73.56
43683;BME280;29285;52.128;21.060;2022-09-09T19:14:54;100422.14;;;15.11;73.59
43683;BME280;29285;52.128;21.060;2022-09-09T19:19:56;100415.98;;;15.12;73.65
43683;BME280;29285;52.128;21.060;2022-09-09T19:24:57;100417.79;;;15.10;73.68
43683;BME280;29285;52.128;21.060;2022-09-09T19:30:00;100428.27;;;15.10;73.71
43683;BME280;29285;52.128;21.060;2022-09-09T19:35:01;100418.66;;;15.11;73.75
43683;BME280;29285;52.128;21.060;2022-09-09T19:40:03;100413.77;;;15.13;73.79
43683;BME280;29285;52.128;21.060;2022-09-09T19:45:08;100428.13;;;15.15;73.88
43683;BME280;29285;52.128;21.060;2022-09-09T19:50:10;100429.19;;;15.09;73.83
43683;BME280;29285;52.128;21.060;2022-09-09T19:55:11;100430.19;;;15.05;73.80
43683;BME280;29285;52.128;21.060;2022-09-09T20:00:13;100431.71;;;14.99;73.80
43683;BME280;29285;52.128;21.060;2022-09-09T20:05:14;100416.11;;;14.95;73.80
43683;BME280;29285;52.128;21.060;2022-09-09T20:10:15;100415.80;;;14.91;73.84
43683;BME280;29285;52.128;21.060;2022-09-09T20:15:17;100412.78;;;14.90;73.88
43683;BME280;29285;52.128;21.060;2022-09-09T20:20:18;100411.48;;;14.90;73.92
43683;BME280;29285;52.128;21.060;2022-09-09T20:25:19;100413.97;;;14.93;74.03
43683;BME280;29285;52.128;21.060;2022-09-09T20:30:22;100421.00;;;14.93;74.05
43683;BME280;29285;52.128;21.060;2022-09-09T20:35:23;100418.21;;;14.98;74.12
43683;BME280;29285;52.128;21.060;2022-09-09T20:40:25;100417.52;;;14.92;74.15
43683;BME280;29285;52.128;21.060;2022-09-09T20:45:26;100426.12;;;14.96;74.14
43683;BME280;29285;52.128;21.060;2022-09-09T20:50:28;100428.65;;;14.99;74.23
43683;BME280;29285;52.128;21.060;2022-09-09T20:55:31;100419.52;;;14.98;74.24
43683;BME280;29285;52.128;21.060;2022-09-09T21:00:34;100413.89;;;14.97;74.25
43683;BME280;29285;52.128;21.060;2022-09-09T21:05:35;100422.19;;;14.96;74.28
43683;BME280;29285;52.128;21.060;2022-09-09T21:10:42;100425.98;;;15.01;74.32
43683;BME280;29285;52.128;21.060;2022-09-09T21:15:44;100433.84;;;15.01;74.38
43683;BME280;29285;52.128;21.060;2022-09-09T21:20:46;100436.55;;;14.98;74.36
43683;BME280;29285;52.128;21.060;2022-09-09T21:25:48;100441.09;;;14.92;74.36
43683;BME280;29285;52.128;21.060;2022-09-09T21:30:50;100442.13;;;14.87;74.33
43683;BME280;29285;52.128;21.060;2022-09-09T21:35:54;100443.80;;;14.89;74.41
43683;BME280;29285;52.128;21.060;2022-09-09T21:41:02;100436.84;;;14.88;74.49
43683;BME280;29285;52.128;21.060;2022-09-09T21:46:09;100432.52;;;14.87;74.57
43683;BME280;29285;52.128;21.060;2022-09-09T21:51:14;100433.64;;;14.80;74.52
43683;BME280;29285;52.128;21.060;2022-09-09T21:56:17;100429.41;;;14.76;74.55
43683;BME280;29285;52.128;21.060;2022-09-09T22:01:19;100429.97;;;14.71;74.54
43683;BME280;29285;52.128;21.060;2022-09-09T22:06:20;100432.28;;;14.66;74.57
43683;BME280;29285;52.128;21.060;2022-09-09T22:11:22;100427.00;;;14.68;74.65
43683;BME280;29285;52.128;21.060;2022-09-09T22:16:25;100428.75;;;14.67;74.74
43683;BME280;29285;52.128;21.060;2022-09-09T22:21:28;100426.17;;;14.66;74.79
43683;BME280;29285;52.128;21.060;2022-09-09T22:26:32;100426.77;;;14.61;74.79
43683;BME280;29285;52.128;21.060;2022-09-09T22:31:36;100427.33;;;14.57;74.80
43683;BME280;29285;52.128;21.060;2022-09-09T22:36:37;100423.55;;;14.52;74.80
43683;BME280;29285;52.128;21.060;2022-09-09T22:41:38;100427.05;;;14.51;74.91
43683;BME280;29285;52.128;21.060;2022-09-09T22:46:40;100432.45;;;14.47;74.93
43683;BME280;29285;52.128;21.060;2022-09-09T22:51:41;100430.02;;;14.40;74.93
43683;BME280;29285;52.128;21.060;2022-09-09T22:56:42;100427.48;;;14.37;74.96
43683;BME280;29285;52.128;21.060;2022-09-09T23:01:44;100423.52;;;14.39;75.05
43683;BME280;29285;52.128;21.060;2022-09-09T23:06:46;100415.27;;;14.38;75.12
43683;BME280;29285;52.128;21.060;2022-09-09T23:11:47;100411.82;;;14.36;75.18
43683;BME280;29285;52.128;21.060;2022-09-09T23:16:49;100406.66;;;14.34;75.21
43683;BME280;29285;52.128;21.060;2022-09-09T23:21:52;100403.65;;;14.32;75.25
43683;BME280;29285;52.128;21.060;2022-09-09T23:26:54;100407.65;;;14.30;75.26
43683;BME280;29285;52.128;21.060;2022-09-09T23:31:55;100407.29;;;14.27;75.32
43683;BME280;29285;52.128;21.060;2022-09-09T23:36:56;100401.23;;;14.25;75.35
43683;BME280;29285;52.128;21.060;2022-09-09T23:41:57;100403.09;;;14.22;75.41
43683;BME280;29285;52.128;21.060;2022-09-09T23:46:59;100400.55;;;14.19;75.41
43683;BME280;29285;52.128;21.060;2022-09-09T23:52:02;100396.59;;;14.20;75.47
43683;BME280;29285;52.128;21.060;2022-09-09T23:57:05;100407.02;;;14.22;75.58
